sensor_id;sensor_type;location;lat;lon;timestamp;P1;durP1;ratioP1;P2;durP2;ratioP2
18383;SDS011;9318;48.644;9.456;2023-07-16T00:01:26;0.60;;;0.60;;
18383;SDS011;9318;48.644;9.456;2023-07-16T00:03:53;0.80;;;0.80;;
18383;SDS011;9318;48.644;9.456;2023-07-16T00:06:20;0.70;;;0.70;;
18383;SDS011;9318;48.644;9.456;2023-07-16T00:08:47;0.70;;;0.70;;
18383;SDS011;9318;48.644;9.456;2023-07-16T00:11:13;0.70;;;0.70;;
18383;SDS011;9318;48.644;9.456;2023-07-16T00:13:40;0.70;;;0.70;;
18383;SDS011;9318;48.644;9.456;2023-07-16T00:16:12;0.70;;;0.70;;
18383;SDS011;9318;48.644;9.456;2023-07-16T00:18:41;0.60;;;0.60;;
18383;SDS011;9318;48.644;9.456;2023-07-16T00:21:08;0.70;;;0.70;;
18383;SDS011;9318;48.644;9.456;2023-07-16T00:23:35;0.75;;;0.75;;
18383;SDS011;9318;48.644;9.456;2023-07-16T00:26:02;0.70;;;0.70;;
18383;SDS011;9318;48.644;9.456;2023-07-16T00:28:29;0.70;;;0.70;;
18383;SDS011;9318;48.644;9.456;2023-07-16T00:30:55;0.52;;;0.52;;
18383;SDS011;9318;48.644;9.456;2023-07-16T00:33:24;0.70;;;0.70;;
18383;SDS011;9318;48.644;9.456;2023-07-16T00:35:50;0.60;;;0.60;;
18383;SDS011;9318;48.644;9.456;2023-07-16T00:38:17;0.70;;;0.70;;
18383;SDS011;9318;48.644;9.456;2023-07-16T00:40:44;0.70;;;0.70;;
18383;SDS011;9318;48.644;9.456;2023-07-16T00:43:11;0.70;;;0.70;;
18383;SDS011;9318;48.644;9.456;2023-07-16T00:45:38;0.70;;;0.70;;
18383;SDS011;9318;48.644;9.456;2023-07-16T00:48:06;0.60;;;0.60;;
18383;SDS011;9318;48.644;9.456;2023-07-16T00:50:35;0.50;;;0.50;;
18383;SDS011;9318;48.644;9.456;2023-07-16T00:53:04;0.60;;;0.60;;
18383;SDS011;9318;48.644;9.456;2023-07-16T00:55:32;0.63;;;0.63;;
18383;SDS011;9318;48.644;9.456;2023-07-16T00:58:00;0.70;;;0.70;;
18383;SDS011;9318;48.644;9.456;2023-07-16T01:00:30;0.60;;;0.60;;
18383;SDS011;9318;48.644;9.456;2023-07-16T01:02:57;0.60;;;0.60;;
18383;SDS011;9318;48.644;9.456;2023-07-16T01:05:24;0.77;;;0.77;;
18383;SDS011;9318;48.644;9.456;2023-07-16T01:08:00;0.50;;;0.50;;
18383;SDS011;9318;48.644;9.456;2023-07-16T01:10:30;0.70;;;0.70;;
18383;SDS011;9318;48.644;9.456;2023-07-16T01:12:58;0.55;;;0.55;;
18383;SDS011;9318;48.644;9.456;2023-07-16T01:15:25;0.70;;;0.70;;
18383;SDS011;9318;48.644;9.456;2023-07-16T01:17:52;0.70;;;0.70;;
18383;SDS011;9318;48.644;9.456;2023-07-16T01:20:19;0.70;;;0.70;;
18383;SDS011;9318;48.644;9.456;2023-07-16T01:22:48;0.70;;;0.70;;
18383;SDS011;9318;48.644;9.456;2023-07-16T01:25:36;0.68;;;0.68;;
18383;SDS011;9318;48.644;9.456;2023-07-16T01:28:21;0.70;;;0.70;;
18383;SDS011;9318;48.644;9.456;2023-07-16T01:31:05;0.80;;;0.80;;
18383;SDS011;9318;48.644;9.456;2023-07-16T01:33:32;0.80;;;0.80;;
18383;SDS011;9318;48.644;9.456;2023-07-16T01:36:00;0.60;;;0.60;;
18383;SDS011;9318;48.644;9.456;2023-07-16T01:38:28;0.60;;;0.60;;
18383;SDS011;9318;48.644;9.456;2023-07-16T01:40:55;0.70;;;0.70;;
18383;SDS011;9318;48.644;9.456;2023-07-16T01:43:22;0.70;;;0.70;;
18383;SDS011;9318;48.644;9.456;2023-07-16T01:45:48;0.80;;;0.80;;
18383;SDS011;9318;48.644;9.456;2023-07-16T01:48:21;0.70;;;0.70;;
18383;SDS011;9318;48.644;9.456;2023-07-16T01:50:55;0.63;;;0.63;;
18383;SDS011;9318;48.644;9.456;2023-07-16T01:53:21;0.70;;;0.70;;
18383;SDS011;9318;48.644;9.456;2023-07-16T01:55:48;0.70;;;0.70;;
18383;SDS011;9318;48.644;9.456;2023-07-16T01:58:15;0.70;;;0.70;;
18383;SDS011;9318;48.644;9.456;2023-07-16T02:00:42;0.60;;;0.60;;
18383;SDS011;9318;48.644;9.456;2023-07-16T02:03:08;0.68;;;0.68;;
18383;SDS011;9318;48.644;9.456;2023-07-16T02:05:37;0.70;;;0.70;;
18383;SDS011;9318;48.644;9.456;2023-07-16T02:08:03;0.68;;;0.68;;
18383;SDS011;9318;48.644;9.456;2023-07-16T02:10:31;0.60;;;0.60;;
18383;SDS011;9318;48.644;9.456;2023-07-16T02:12:58;0.70;;;0.70;;
18383;SDS011;9318;48.644;9.456;2023-07-16T02:15:24;0.70;;;0.70;;
18383;SDS011;9318;48.644;9.456;2023-07-16T02:17:51;0.70;;;0.70;;
18383;SDS011;9318;48.644;9.456;2023-07-16T02:20:18;0.80;;;0.80;;
18383;SDS011;9318;48.644;9.456;2023-07-16T02:22:46;0.70;;;0.70;;
18383;SDS011;9318;48.644;9.456;2023-07-16T02:25:12;0.80;;;0.80;;
18383;SDS011;9318;48.644;9.456;2023-07-16T02:27:39;0.80;;;0.80;;
18383;SDS011;9318;48.644;9.456;2023-07-16T02:30:06;0.60;;;0.60;;
18383;SDS011;9318;48.644;9.456;2023-07-16T02:32:33;0.75;;;0.75;;
18383;SDS011;9318;48.644;9.456;2023-07-16T02:35:00;0.75;;;0.75;;
18383;SDS011;9318;48.644;9.456;2023-07-16T02:37:28;0.60;;;0.60;;
18383;SDS011;9318;48.644;9.456;2023-07-16T02:39:56;0.63;;;0.63;;
18383;SDS011;9318;48.644;9.456;2023-07-16T02:42:22;0.70;;;0.70;;
18383;SDS011;9318;48.644;9.456;2023-07-16T02:44:50;0.63;;;0.63;;
18383;SDS011;9318;48.644;9.456;2023-07-16T02:47:16;0.68;;;0.68;;
18383;SDS011;9318;48.644;9.456;2023-07-16T02:49:43;0.70;;;0.70;;
18383;SDS011;9318;48.644;9.456;2023-07-16T02:52:10;0.70;;;0.70;;
18383;SDS011;9318;48.644;9.456;2023-07-16T02:54:37;0.70;;;0.70;;
18383;SDS011;9318;48.644;9.456;2023-07-16T02:57:05;0.70;;;0.70;;
18383;SDS011;9318;48.644;9.456;2023-07-16T02:59:32;0.60;;;0.60;;
18383;SDS011;9318;48.644;9.456;2023-07-16T03:01:59;0.77;;;0.77;;
18383;SDS011;9318;48.644;9.456;2023-07-16T03:04:25;0.80;;;0.80;;
18383;SDS011;9318;48.644;9.456;2023-07-16T03:06:52;0.70;;;0.70;;
18383;SDS011;9318;48.644;9.456;2023-07-16T03:09:19;0.80;;;0.80;;
18383;SDS011;9318;48.644;9.456;2023-07-16T03:11:45;0.70;;;0.70;;
18383;SDS011;9318;48.644;9.456;2023-07-16T03:14:13;0.60;;;0.60;;
18383;SDS011;9318;48.644;9.456;2023-07-16T03:16:40;0.60;;;0.60;;
18383;SDS011;9318;48.644;9.456;2023-07-16T03:19:07;0.80;;;0.80;;
18383;SDS011;9318;48.644;9.456;2023-07-16T03:21:34;0.77;;;0.77;;
18383;SDS011;9318;48.644;9.456;2023-07-16T03:24:01;0.80;;;0.80;;
18383;SDS011;9318;48.644;9.456;2023-07-16T03:26:27;0.60;;;0.60;;
18383;SDS011;9318;48.644;9.456;2023-07-16T03:28:54;0.70;;;0.70;;
18383;SDS011;9318;48.644;9.456;2023-07-16T03:31:22;0.77;;;0.77;;
18383;SDS011;9318;48.644;9.456;2023-07-16T03:33:49;0.70;;;0.70;;
18383;SDS011;9318;48.644;9.456;2023-07-16T03:36:17;0.80;;;0.80;;
18383;SDS011;9318;48.644;9.456;2023-07-16T03:38:44;0.70;;;0.70;;
18383;SDS011;9318;48.644;9.456;2023-07-16T03:41:11;0.70;;;0.70;;
18383;SDS011;9318;48.644;9.456;2023-07-16T03:43:38;0.80;;;0.80;;
18383;SDS011;9318;48.644;9.456;2023-07-16T03:46:04;0.75;;;0.75;;
18383;SDS011;9318;48.644;9.456;2023-07-16T03:48:34;0.70;;;0.70;;
18383;SDS011;9318;48.644;9.456;2023-07-16T03:51:01;0.90;;;0.90;;
18383;SDS011;9318;48.644;9.456;2023-07-16T03:53:28;0.70;;;0.70;;
18383;SDS011;9318;48.644;9.456;2023-07-16T03:55:54;0.60;;;0.60;;
18383;SDS011;9318;48.644;9.456;2023-07-16T03:58:21;0.60;;;0.60;;
18383;SDS011;9318;48.644;9.456;2023-07-16T04:00:48;0.90;;;0.90;;
18383;SDS011;9318;48.644;9.456;2023-07-16T04:03:15;0.70;;;0.70;;
18383;SDS011;9318;48.644;9.456;2023-07-16T04:05:43;0.70;;;0.70;;
18383;SDS011;9318;48.644;9.456;2023-07-16T04:08:10;0.77;;;0.77;;
18383;SDS011;9318;48.644;9.456;2023-07-16T04:10:36;0.70;;;0.70;;
18383;SDS011;9318;48.644;9.456;2023-07-16T04:13:03;0.80;;;0.80;;
18383;SDS011;9318;48.644;9.456;2023-07-16T04:15:30;0.70;;;0.70;;
18383;SDS011;9318;48.644;9.456;2023-07-16T04:17:57;0.60;;;0.60;;
18383;SDS011;9318;48.644;9.456;2023-07-16T04:20:23;1.00;;;1.00;;
18383;SDS011;9318;48.644;9.456;2023-07-16T04:22:51;0.70;;;0.70;;
18383;SDS011;9318;48.644;9.456;2023-07-16T04:25:18;0.80;;;0.80;;
18383;SDS011;9318;48.644;9.456;2023-07-16T04:27:45;0.70;;;0.70;;
18383;SDS011;9318;48.644;9.456;2023-07-16T04:30:12;0.68;;;0.68;;
18383;SDS011;9318;48.644;9.456;2023-07-16T04:32:38;0.70;;;0.70;;
18383;SDS011;9318;48.644;9.456;2023-07-16T04:35:05;0.70;;;0.70;;
18383;SDS011;9318;48.644;9.456;2023-07-16T04:37:33;0.82;;;0.82;;
18383;SDS011;9318;48.644;9.456;2023-07-16T04:40:01;0.80;;;0.80;;
18383;SDS011;9318;48.644;9.456;2023-07-16T04:42:29;0.57;;;0.57;;
18383;SDS011;9318;48.644;9.456;2023-07-16T04:44:56;0.80;;;0.80;;
18383;SDS011;9318;48.644;9.456;2023-07-16T04:47:22;0.80;;;0.80;;
18383;SDS011;9318;48.644;9.456;2023-07-16T04:49:49;0.80;;;0.80;;
18383;SDS011;9318;48.644;9.456;2023-07-16T04:52:16;0.80;;;0.80;;
18383;SDS011;9318;48.644;9.456;2023-07-16T04:54:43;0.70;;;0.70;;
18383;SDS011;9318;48.644;9.456;2023-07-16T04:57:11;0.60;;;0.60;;
18383;SDS011;9318;48.644;9.456;2023-07-16T04:59:37;0.70;;;0.70;;
18383;SDS011;9318;48.644;9.456;2023-07-16T05:02:05;0.70;;;0.70;;
18383;SDS011;9318;48.644;9.456;2023-07-16T05:04:32;0.52;;;0.52;;
18383;SDS011;9318;48.644;9.456;2023-07-16T05:07:00;0.80;;;0.80;;
18383;SDS011;9318;48.644;9.456;2023-07-16T05:09:27;0.70;;;0.70;;
18383;SDS011;9318;48.644;9.456;2023-07-16T05:11:54;0.65;;;0.65;;
18383;SDS011;9318;48.644;9.456;2023-07-16T05:14:22;0.45;;;0.45;;
18383;SDS011;9318;48.644;9.456;2023-07-16T05:16:52;0.70;;;0.70;;
18383;SDS011;9318;48.644;9.456;2023-07-16T05:19:18;0.70;;;0.70;;
18383;SDS011;9318;48.644;9.456;2023-07-16T05:21:45;0.52;;;0.52;;
18383;SDS011;9318;48.644;9.456;2023-07-16T05:24:12;0.50;;;0.50;;
18383;SDS011;9318;48.644;9.456;2023-07-16T05:26:39;0.68;;;0.68;;
18383;SDS011;9318;48.644;9.456;2023-07-16T05:29:06;0.70;;;0.70;;
18383;SDS011;9318;48.644;9.456;2023-07-16T05:31:34;0.57;;;0.57;;
18383;SDS011;9318;48.644;9.456;2023-07-16T05:34:01;0.70;;;0.70;;
18383;SDS011;9318;48.644;9.456;2023-07-16T05:36:27;0.80;;;0.80;;
18383;SDS011;9318;48.644;9.456;2023-07-16T05:38:54;0.60;;;0.60;;
18383;SDS011;9318;48.644;9.456;2023-07-16T05:41:21;0.60;;;0.60;;
18383;SDS011;9318;48.644;9.456;2023-07-16T05:43:48;0.60;;;0.60;;
18383;SDS011;9318;48.644;9.456;2023-07-16T05:46:14;0.60;;;0.60;;
18383;SDS011;9318;48.644;9.456;2023-07-16T05:48:42;0.70;;;0.70;;
18383;SDS011;9318;48.644;9.456;2023-07-16T05:51:09;0.60;;;0.60;;
18383;SDS011;9318;48.644;9.456;2023-07-16T05:53:36;0.60;;;0.60;;
18383;SDS011;9318;48.644;9.456;2023-07-16T05:56:03;0.70;;;0.70;;
18383;SDS011;9318;48.644;9.456;2023-07-16T05:58:29;0.60;;;0.60;;
18383;SDS011;9318;48.644;9.456;2023-07-16T06:00:56;0.60;;;0.60;;
18383;SDS011;9318;48.644;9.456;2023-07-16T06:03:23;0.60;;;0.60;;
18383;SDS011;9318;48.644;9.456;2023-07-16T06:05:51;0.70;;;0.70;;
18383;SDS011;9318;48.644;9.456;2023-07-16T06:08:17;0.70;;;0.70;;
18383;SDS011;9318;48.644;9.456;2023-07-16T06:10:45;0.60;;;0.60;;
18383;SDS011;9318;48.644;9.456;2023-07-16T06:13:12;0.75;;;0.75;;
18383;SDS011;9318;48.644;9.456;2023-07-16T06:15:38;0.60;;;0.60;;
18383;SDS011;9318;48.644;9.456;2023-07-16T06:18:05;0.70;;;0.70;;
18383;SDS011;9318;48.644;9.456;2023-07-16T06:20:32;0.63;;;0.63;;
18383;SDS011;9318;48.644;9.456;2023-07-16T06:23:00;0.57;;;0.57;;
18383;SDS011;9318;48.644;9.456;2023-07-16T06:25:27;0.57;;;0.57;;
18383;SDS011;9318;48.644;9.456;2023-07-16T06:27:53;0.60;;;0.60;;
18383;SDS011;9318;48.644;9.456;2023-07-16T06:30:20;0.50;;;0.50;;
18383;SDS011;9318;48.644;9.456;2023-07-16T06:32:47;0.50;;;0.50;;
18383;SDS011;9318;48.644;9.456;2023-07-16T06:35:14;0.50;;;0.50;;
18383;SDS011;9318;48.644;9.456;2023-07-16T06:37:40;0.63;;;0.63;;
18383;SDS011;9318;48.644;9.456;2023-07-16T06:40:09;0.60;;;0.60;;
18383;SDS011;9318;48.644;9.456;2023-07-16T06:42:36;0.60;;;0.60;;
18383;SDS011;9318;48.644;9.456;2023-07-16T06:45:03;0.60;;;0.60;;
18383;SDS011;9318;48.644;9.456;2023-07-16T06:47:30;0.70;;;0.70;;
18383;SDS011;9318;48.644;9.456;2023-07-16T06:49:57;0.50;;;0.50;;
18383;SDS011;9318;48.644;9.456;2023-07-16T06:52:24;0.60;;;0.60;;
18383;SDS011;9318;48.644;9.456;2023-07-16T06:54:52;0.52;;;0.52;;
18383;SDS011;9318;48.644;9.456;2023-07-16T06:57:21;0.60;;;0.60;;
18383;SDS011;9318;48.644;9.456;2023-07-16T06:59:48;0.60;;;0.60;;
18383;SDS011;9318;48.644;9.456;2023-07-16T07:02:15;0.60;;;0.60;;
18383;SDS011;9318;48.644;9.456;2023-07-16T07:04:42;0.60;;;0.60;;
18383;SDS011;9318;48.644;9.456;2023-07-16T07:07:09;0.60;;;0.60;;
18383;SDS011;9318;48.644;9.456;2023-07-16T07:09:36;0.60;;;0.60;;
18383;SDS011;9318;48.644;9.456;2023-07-16T07:12:03;0.60;;;0.60;;
18383;SDS011;9318;48.644;9.456;2023-07-16T07:14:32;0.68;;;0.68;;
18383;SDS011;9318;48.644;9.456;2023-07-16T07:16:59;0.60;;;0.60;;
18383;SDS011;9318;48.644;9.456;2023-07-16T07:19:26;0.50;;;0.50;;
18383;SDS011;9318;48.644;9.456;2023-07-16T07:21:53;0.50;;;0.50;;
18383;SDS011;9318;48.644;9.456;2023-07-16T07:24:20;0.50;;;0.50;;
18383;SDS011;9318;48.644;9.456;2023-07-16T07:26:46;0.40;;;0.40;;
18383;SDS011;9318;48.644;9.456;2023-07-16T07:29:13;0.40;;;0.40;;
18383;SDS011;9318;48.644;9.456;2023-07-16T07:31:41;0.50;;;0.50;;
18383;SDS011;9318;48.644;9.456;2023-07-16T07:34:08;0.50;;;0.50;;
18383;SDS011;9318;48.644;9.456;2023-07-16T07:36:34;0.40;;;0.40;;
18383;SDS011;9318;48.644;9.456;2023-07-16T07:39:01;0.40;;;0.40;;
18383;SDS011;9318;48.644;9.456;2023-07-16T07:41:28;0.40;;;0.40;;
18383;SDS011;9318;48.644;9.456;2023-07-16T07:43:55;0.40;;;0.40;;
18383;SDS011;9318;48.644;9.456;2023-07-16T07:46:21;0.30;;;0.30;;
18383;SDS011;9318;48.644;9.456;2023-07-16T07:48:49;0.38;;;0.38;;
18383;SDS011;9318;48.644;9.456;2023-07-16T07:51:16;0.40;;;0.40;;
18383;SDS011;9318;48.644;9.456;2023-07-16T07:53:43;0.35;;;0.35;;
18383;SDS011;9318;48.644;9.456;2023-07-16T07:56:10;0.30;;;0.30;;
18383;SDS011;9318;48.644;9.456;2023-07-16T07:58:36;0.30;;;0.30;;
18383;SDS011;9318;48.644;9.456;2023-07-16T08:01:04;0.30;;;0.30;;
18383;SDS011;9318;48.644;9.456;2023-07-16T08:03:31;0.22;;;0.22;;
18383;SDS011;9318;48.644;9.456;2023-07-16T08:05:59;0.30;;;0.30;;
18383;SDS011;9318;48.644;9.456;2023-07-16T08:08:26;0.40;;;0.40;;
18383;SDS011;9318;48.644;9.456;2023-07-16T08:10:53;0.30;;;0.30;;
18383;SDS011;9318;48.644;9.456;2023-07-16T08:13:20;0.40;;;0.40;;
18383;SDS011;9318;48.644;9.456;2023-07-16T08:15:47;0.40;;;0.40;;
18383;SDS011;9318;48.644;9.456;2023-07-16T08:18:14;0.30;;;0.30;;
18383;SDS011;9318;48.644;9.456;2023-07-16T08:20:41;0.40;;;0.40;;
18383;SDS011;9318;48.644;9.456;2023-07-16T08:23:09;0.30;;;0.30;;
18383;SDS011;9318;48.644;9.456;2023-07-16T08:25:36;0.50;;;0.50;;
18383;SDS011;9318;48.644;9.456;2023-07-16T08:28:02;0.45;;;0.45;;
18383;SDS011;9318;48.644;9.456;2023-07-16T08:30:29;0.40;;;0.40;;
18383;SDS011;9318;48.644;9.456;2023-07-16T08:32:58;0.50;;;0.50;;
18383;SDS011;9318;48.644;9.456;2023-07-16T08:35:24;0.50;;;0.50;;
18383;SDS011;9318;48.644;9.456;2023-07-16T08:37:51;0.47;;;0.47;;
18383;SDS011;9318;48.644;9.456;2023-07-16T08:40:19;0.45;;;0.45;;
18383;SDS011;9318;48.644;9.456;2023-07-16T08:42:46;0.40;;;0.40;;
18383;SDS011;9318;48.644;9.456;2023-07-16T08:45:15;0.40;;;0.40;;
18383;SDS011;9318;48.644;9.456;2023-07-16T08:47:43;0.40;;;0.40;;
18383;SDS011;9318;48.644;9.456;2023-07-16T08:50:10;0.30;;;0.30;;
18383;SDS011;9318;48.644;9.456;2023-07-16T08:52:38;0.50;;;0.50;;
18383;SDS011;9318;48.644;9.456;2023-07-16T08:55:06;0.40;;;0.40;;
18383;SDS011;9318;48.644;9.456;2023-07-16T08:57:35;0.40;;;0.40;;
18383;SDS011;9318;48.644;9.456;2023-07-16T09:00:02;0.40;;;0.40;;
18383;SDS011;9318;48.644;9.456;2023-07-16T09:02:30;0.30;;;0.30;;
18383;SDS011;9318;48.644;9.456;2023-07-16T09:04:57;0.47;;;0.47;;
18383;SDS011;9318;48.644;9.456;2023-07-16T09:07:25;0.30;;;0.30;;
18383;SDS011;9318;48.644;9.456;2023-07-16T09:09:55;0.40;;;0.40;;
18383;SDS011;9318;48.644;9.456;2023-07-16T09:12:26;0.40;;;0.40;;
18383;SDS011;9318;48.644;9.456;2023-07-16T09:14:54;0.40;;;0.40;;
18383;SDS011;9318;48.644;9.456;2023-07-16T09:17:21;0.40;;;0.40;;
18383;SDS011;9318;48.644;9.456;2023-07-16T09:19:49;0.40;;;0.40;;
18383;SDS011;9318;48.644;9.456;2023-07-16T09:22:17;0.35;;;0.35;;
18383;SDS011;9318;48.644;9.456;2023-07-16T09:24:44;0.40;;;0.40;;
18383;SDS011;9318;48.644;9.456;2023-07-16T09:27:12;0.40;;;0.40;;
18383;SDS011;9318;48.644;9.456;2023-07-16T09:29:39;0.30;;;0.30;;
18383;SDS011;9318;48.644;9.456;2023-07-16T09:32:07;0.40;;;0.40;;
18383;SDS011;9318;48.644;9.456;2023-07-16T09:34:34;0.30;;;0.30;;
18383;SDS011;9318;48.644;9.456;2023-07-16T09:37:01;0.35;;;0.35;;
18383;SDS011;9318;48.644;9.456;2023-07-16T09:39:31;0.47;;;0.47;;
18383;SDS011;9318;48.644;9.456;2023-07-16T09:41:58;0.40;;;0.40;;
18383;SDS011;9318;48.644;9.456;2023-07-16T09:44:25;0.30;;;0.30;;
18383;SDS011;9318;48.644;9.456;2023-07-16T09:46:51;0.30;;;0.30;;
18383;SDS011;9318;48.644;9.456;2023-07-16T09:49:19;0.40;;;0.40;;
18383;SDS011;9318;48.644;9.456;2023-07-16T09:51:46;0.30;;;0.30;;
18383;SDS011;9318;48.644;9.456;2023-07-16T09:54:18;0.30;;;0.30;;
18383;SDS011;9318;48.644;9.456;2023-07-16T09:56:47;0.50;;;0.50;;
18383;SDS011;9318;48.644;9.456;2023-07-16T09:59:17;0.40;;;0.40;;
18383;SDS011;9318;48.644;9.456;2023-07-16T10:01:47;0.28;;;0.28;;
18383;SDS011;9318;48.644;9.456;2023-07-16T10:04:15;0.40;;;0.40;;
18383;SDS011;9318;48.644;9.456;2023-07-16T10:06:51;0.40;;;0.40;;
18383;SDS011;9318;48.644;9.456;2023-07-16T10:09:32;0.40;;;0.40;;
18383;SDS011;9318;48.644;9.456;2023-07-16T10:12:12;0.40;;;0.40;;
18383;SDS011;9318;48.644;9.456;2023-07-16T10:14:40;0.32;;;0.32;;
18383;SDS011;9318;48.644;9.456;2023-07-16T10:17:11;0.40;;;0.40;;
18383;SDS011;9318;48.644;9.456;2023-07-16T10:19:46;0.40;;;0.40;;
18383;SDS011;9318;48.644;9.456;2023-07-16T10:22:18;0.40;;;0.40;;
18383;SDS011;9318;48.644;9.456;2023-07-16T10:24:51;0.40;;;0.40;;
18383;SDS011;9318;48.644;9.456;2023-07-16T10:27:26;0.50;;;0.50;;
18383;SDS011;9318;48.644;9.456;2023-07-16T10:29:53;0.40;;;0.40;;
18383;SDS011;9318;48.644;9.456;2023-07-16T10:32:21;0.45;;;0.45;;
18383;SDS011;9318;48.644;9.456;2023-07-16T10:34:47;0.50;;;0.50;;
18383;SDS011;9318;48.644;9.456;2023-07-16T10:37:14;0.40;;;0.40;;
18383;SDS011;9318;48.644;9.456;2023-07-16T10:39:46;0.40;;;0.40;;
18383;SDS011;9318;48.644;9.456;2023-07-16T10:42:15;0.40;;;0.40;;
18383;SDS011;9318;48.644;9.456;2023-07-16T10:44:42;0.40;;;0.40;;
18383;SDS011;9318;48.644;9.456;2023-07-16T10:47:10;0.50;;;0.50;;
18383;SDS011;9318;48.644;9.456;2023-07-16T10:49:46;0.40;;;0.40;;
18383;SDS011;9318;48.644;9.456;2023-07-16T10:52:12;0.30;;;0.30;;
18383;SDS011;9318;48.644;9.456;2023-07-16T10:54:39;0.43;;;0.43;;
18383;SDS011;9318;48.644;9.456;2023-07-16T10:57:07;0.40;;;0.40;;
18383;SDS011;9318;48.644;9.456;2023-07-16T10:59:36;0.40;;;0.40;;
18383;SDS011;9318;48.644;9.456;2023-07-16T11:02:04;0.35;;;0.35;;
18383;SDS011;9318;48.644;9.456;2023-07-16T11:04:34;0.40;;;0.40;;
18383;SDS011;9318;48.644;9.456;2023-07-16T11:07:03;0.45;;;0.45;;
18383;SDS011;9318;48.644;9.456;2023-07-16T11:09:31;0.43;;;0.43;;
18383;SDS011;9318;48.644;9.456;2023-07-16T11:12:04;0.30;;;0.30;;
18383;SDS011;9318;48.644;9.456;2023-07-16T11:14:33;0.43;;;0.43;;
18383;SDS011;9318;48.644;9.456;2023-07-16T11:17:04;0.40;;;0.40;;
18383;SDS011;9318;48.644;9.456;2023-07-16T11:19:32;0.40;;;0.40;;
18383;SDS011;9318;48.644;9.456;2023-07-16T11:21:59;0.40;;;0.40;;
18383;SDS011;9318;48.644;9.456;2023-07-16T11:24:26;0.47;;;0.47;;
18383;SDS011;9318;48.644;9.456;2023-07-16T11:26:54;0.50;;;0.50;;
18383;SDS011;9318;48.644;9.456;2023-07-16T11:29:23;0.47;;;0.47;;
18383;SDS011;9318;48.644;9.456;2023-07-16T11:31:51;0.30;;;0.30;;
18383;SDS011;9318;48.644;9.456;2023-07-16T11:34:22;0.50;;;0.50;;
18383;SDS011;9318;48.644;9.456;2023-07-16T11:36:48;0.40;;;0.40;;
18383;SDS011;9318;48.644;9.456;2023-07-16T11:39:16;0.40;;;0.40;;
18383;SDS011;9318;48.644;9.456;2023-07-16T11:41:53;0.40;;;0.40;;
18383;SDS011;9318;48.644;9.456;2023-07-16T11:44:20;0.30;;;0.30;;
18383;SDS011;9318;48.644;9.456;2023-07-16T11:46:47;0.30;;;0.30;;
18383;SDS011;9318;48.644;9.456;2023-07-16T11:49:15;0.30;;;0.30;;
18383;SDS011;9318;48.644;9.456;2023-07-16T11:51:42;0.45;;;0.45;;
18383;SDS011;9318;48.644;9.456;2023-07-16T11:54:09;0.30;;;0.30;;
18383;SDS011;9318;48.644;9.456;2023-07-16T11:56:36;0.35;;;0.35;;
18383;SDS011;9318;48.644;9.456;2023-07-16T11:59:03;0.32;;;0.32;;
18383;SDS011;9318;48.644;9.456;2023-07-16T12:01:29;0.30;;;0.30;;
18383;SDS011;9318;48.644;9.456;2023-07-16T12:03:56;0.40;;;0.40;;
18383;SDS011;9318;48.644;9.456;2023-07-16T12:06:24;0.25;;;0.25;;
18383;SDS011;9318;48.644;9.456;2023-07-16T12:08:51;0.40;;;0.40;;
18383;SDS011;9318;48.644;9.456;2023-07-16T12:11:20;0.40;;;0.40;;
18383;SDS011;9318;48.644;9.456;2023-07-16T12:13:47;0.30;;;0.30;;
18383;SDS011;9318;48.644;9.456;2023-07-16T12:16:13;0.30;;;0.30;;
18383;SDS011;9318;48.644;9.456;2023-07-16T12:18:40;0.30;;;0.30;;
18383;SDS011;9318;48.644;9.456;2023-07-16T12:21:07;0.40;;;0.40;;
18383;SDS011;9318;48.644;9.456;2023-07-16T12:23:35;0.30;;;0.30;;
18383;SDS011;9318;48.644;9.456;2023-07-16T12:26:02;0.40;;;0.40;;
18383;SDS011;9318;48.644;9.456;2023-07-16T12:28:28;0.40;;;0.40;;
18383;SDS011;9318;48.644;9.456;2023-07-16T12:30:55;0.40;;;0.40;;
18383;SDS011;9318;48.644;9.456;2023-07-16T12:33:22;0.40;;;0.40;;
18383;SDS011;9318;48.644;9.456;2023-07-16T12:35:49;0.30;;;0.30;;
18383;SDS011;9318;48.644;9.456;2023-07-16T12:38:15;0.30;;;0.30;;
18383;SDS011;9318;48.644;9.456;2023-07-16T12:40:43;0.40;;;0.40;;
18383;SDS011;9318;48.644;9.456;2023-07-16T12:43:10;0.40;;;0.40;;
18383;SDS011;9318;48.644;9.456;2023-07-16T12:45:37;0.30;;;0.30;;
18383;SDS011;9318;48.644;9.456;2023-07-16T12:48:03;0.40;;;0.40;;
18383;SDS011;9318;48.644;9.456;2023-07-16T12:50:30;0.30;;;0.30;;
18383;SDS011;9318;48.644;9.456;2023-07-16T12:52:57;0.40;;;0.40;;
18383;SDS011;9318;48.644;9.456;2023-07-16T12:55:24;0.40;;;0.40;;
18383;SDS011;9318;48.644;9.456;2023-07-16T12:57:52;0.40;;;0.40;;
18383;SDS011;9318;48.644;9.456;2023-07-16T13:00:19;0.40;;;0.40;;
18383;SDS011;9318;48.644;9.456;2023-07-16T13:02:46;0.40;;;0.40;;
18383;SDS011;9318;48.644;9.456;2023-07-16T13:05:12;0.40;;;0.40;;
18383;SDS011;9318;48.644;9.456;2023-07-16T13:07:39;0.50;;;0.50;;
18383;SDS011;9318;48.644;9.456;2023-07-16T13:10:06;0.40;;;0.40;;
18383;SDS011;9318;48.644;9.456;2023-07-16T13:12:34;0.40;;;0.40;;
18383;SDS011;9318;48.644;9.456;2023-07-16T13:15:02;0.40;;;0.40;;
18383;SDS011;9318;48.644;9.456;2023-07-16T13:17:30;0.40;;;0.40;;
18383;SDS011;9318;48.644;9.456;2023-07-16T13:19:56;0.32;;;0.32;;
18383;SDS011;9318;48.644;9.456;2023-07-16T13:22:23;0.40;;;0.40;;
18383;SDS011;9318;48.644;9.456;2023-07-16T13:24:50;0.40;;;0.40;;
18383;SDS011;9318;48.644;9.456;2023-07-16T13:27:21;0.30;;;0.30;;
18383;SDS011;9318;48.644;9.456;2023-07-16T13:29:48;0.40;;;0.40;;
18383;SDS011;9318;48.644;9.456;2023-07-16T13:32:17;0.40;;;0.40;;
18383;SDS011;9318;48.644;9.456;2023-07-16T13:34:44;0.40;;;0.40;;
18383;SDS011;9318;48.644;9.456;2023-07-16T13:37:10;0.30;;;0.30;;
18383;SDS011;9318;48.644;9.456;2023-07-16T13:39:37;0.40;;;0.40;;
18383;SDS011;9318;48.644;9.456;2023-07-16T13:42:04;0.40;;;0.40;;
18383;SDS011;9318;48.644;9.456;2023-07-16T13:44:32;0.30;;;0.30;;
18383;SDS011;9318;48.644;9.456;2023-07-16T13:46:58;0.30;;;0.30;;
18383;SDS011;9318;48.644;9.456;2023-07-16T13:49:27;0.50;;;0.50;;
18383;SDS011;9318;48.644;9.456;2023-07-16T13:51:53;0.38;;;0.38;;
18383;SDS011;9318;48.644;9.456;2023-07-16T13:54:21;0.30;;;0.30;;
18383;SDS011;9318;48.644;9.456;2023-07-16T13:56:48;0.20;;;0.20;;
18383;SDS011;9318;48.644;9.456;2023-07-16T13:59:15;0.32;;;0.32;;
18383;SDS011;9318;48.644;9.456;2023-07-16T14:01:41;0.30;;;0.30;;
18383;SDS011;9318;48.644;9.456;2023-07-16T14:04:08;0.30;;;0.30;;
18383;SDS011;9318;48.644;9.456;2023-07-16T14:06:37;0.40;;;0.40;;
18383;SDS011;9318;48.644;9.456;2023-07-16T14:09:03;0.40;;;0.40;;
18383;SDS011;9318;48.644;9.456;2023-07-16T14:11:30;0.30;;;0.30;;
18383;SDS011;9318;48.644;9.456;2023-07-16T14:13:57;0.40;;;0.40;;
18383;SDS011;9318;48.644;9.456;2023-07-16T14:16:24;0.30;;;0.30;;
18383;SDS011;9318;48.644;9.456;2023-07-16T14:18:51;0.32;;;0.32;;
18383;SDS011;9318;48.644;9.456;2023-07-16T14:21:19;0.38;;;0.38;;
18383;SDS011;9318;48.644;9.456;2023-07-16T14:23:47;0.40;;;0.40;;
18383;SDS011;9318;48.644;9.456;2023-07-16T14:26:14;0.40;;;0.40;;
18383;SDS011;9318;48.644;9.456;2023-07-16T14:28:41;0.40;;;0.40;;
18383;SDS011;9318;48.644;9.456;2023-07-16T14:31:07;0.50;;;0.50;;
18383;SDS011;9318;48.644;9.456;2023-07-16T14:33:35;0.30;;;0.30;;
18383;SDS011;9318;48.644;9.456;2023-07-16T14:36:03;0.47;;;0.47;;
18383;SDS011;9318;48.644;9.456;2023-07-16T14:38:29;0.40;;;0.40;;
18383;SDS011;9318;48.644;9.456;2023-07-16T14:40:58;0.40;;;0.40;;
18383;SDS011;9318;48.644;9.456;2023-07-16T14:43:25;0.40;;;0.40;;
18383;SDS011;9318;48.644;9.456;2023-07-16T14:45:52;0.40;;;0.40;;
18383;SDS011;9318;48.644;9.456;2023-07-16T14:48:18;0.40;;;0.40;;
18383;SDS011;9318;48.644;9.456;2023-07-16T14:50:48;0.40;;;0.40;;
18383;SDS011;9318;48.644;9.456;2023-07-16T14:53:14;0.30;;;0.30;;
18383;SDS011;9318;48.644;9.456;2023-07-16T14:55:45;0.50;;;0.50;;
18383;SDS011;9318;48.644;9.456;2023-07-16T14:58:14;0.40;;;0.40;;
18383;SDS011;9318;48.644;9.456;2023-07-16T15:00:41;0.50;;;0.50;;
18383;SDS011;9318;48.644;9.456;2023-07-16T15:03:08;0.40;;;0.40;;